Latest Weather Observations for Renmark Airport

IDS60801

Issued at 8:02 am CST Monday 20 April 2015 (issued every 30 minutes, with the page automatically refreshed every 10 minutes)

About weather observations | Map of weather stations | Latest weather observations for SA | Other Formats
Station Details ID: 024048 Name: RENMARK AERO Lat: -34.20 Lon: 140.68 Height: 31.5 m
Data from the previous 72 hours. | See also: Recent months at Renmark Airport
Date/Time
CST
Temp
°C
App
Temp
°C
Dew
Point
Rel
Hum
%
Delta-T
°C
Wind Press
QNH
hPa
Press
MSL
hPa
Rain
since 9 am
mm
Dir
 
Spd
km/h
Gust
km/h
Spd
kts
Gust
kts
20/08:00am 8.5 3.8 3.1 69 2.3 SSE 17 20 9 11 1037.6 1037.6 0.0
20/07:30am 6.7 3.1 3.0 77 1.5 SSE 11 13 6 7 1037.4 1037.4 0.0
20/07:00am 5.5 1.8 2.5 81 1.2 S 11 17 6 9 1037.2 1037.2 0.0
20/06:30am 5.2 1.2 2.6 83 1.0 S 13 17 7 9 1037.0 1037.0 0.0
20/06:00am 5.2 1.5 2.6 83 1.0 S 11 13 6 7 1036.9 1036.9 0.0
20/05:30am 5.7 1.7 2.7 81 1.2 SSE 13 19 7 10 1036.7 1036.7 0.0
20/05:00am 5.9 1.5 2.5 79 1.4 S 15 20 8 11 1036.6 1036.6 0.0
20/04:30am 6.2 1.8 2.5 77 1.5 SSE 15 19 8 10 1036.3 1036.3 0.0
20/04:00am 6.2 1.8 2.5 77 1.5 SSE 15 20 8 11 1035.9 1035.9 0.0
20/03:30am 6.5 2.0 2.4 75 1.7 S 15 20 8 11 1035.8 1035.8 0.0
20/03:00am 6.7 2.2 2.0 72 1.9 S 15 20 8 11 1036.1 1036.1 0.0
20/02:30am 7.1 2.5 1.8 69 2.1 S 15 20 8 11 1035.9 1035.9 0.0
20/02:00am 7.5 2.2 1.8 67 2.3 SSE 19 24 10 13 1036.0 1036.0 0.0
20/01:30am 7.9 2.6 1.7 65 2.5 SSE 19 24 10 13 1035.9 1035.9 0.0
20/01:00am 8.3 3.0 1.7 63 2.7 SSE 19 24 10 13 1036.0 1036.0 0.0
20/12:30am 8.7 3.4 2.1 63 2.7 SSE 19 22 10 12 1036.0 1036.0 0.0
20/12:00am 8.9 4.0 2.3 63 2.7 SSE 17 22 9 12 1035.8 1035.8 0.0
 
Date/Time
CST
Temp
°C
App
Temp
°C
Dew
Point
Rel
Hum
%
Delta-T
°C
Wind Press
QNH
hPa
Press
MSL
hPa
Rain
since 9 am
mm
Dir
 
Spd
km/h
Gust
km/h
Spd
kts
Gust
kts
19/11:30pm 9.2 4.3 2.3 62 2.9 SSE 17 22 9 12 1035.9 1035.9 0.0
19/11:00pm 9.7 4.4 2.1 59 3.2 SSE 19 22 10 12 1035.7 1035.7 0.0
19/10:30pm 10.0 5.1 2.1 58 3.3 S 17 22 9 12 1035.6 1035.6 0.0
19/10:00pm 10.2 5.3 2.1 57 3.4 S 17 22 9 12 1035.6 1035.6 0.0
19/09:30pm 10.6 6.4 1.9 55 3.6 S 13 20 7 11 1035.3 1035.3 0.0
19/09:00pm 10.8 6.6 1.9 54 3.7 S 13 22 7 12 1035.0 1035.0 0.0
19/08:30pm 11.4 6.8 1.4 50 4.2 S 15 20 8 11 1034.8 1034.8 0.0
19/08:00pm 11.5 7.3 1.5 50 4.2 S 13 19 7 10 1034.4 1034.4 0.0
19/07:30pm 11.6 7.5 2.1 52 4.0 S 13 17 7 9 1034.1 1034.1 0.0
19/07:00pm 12.1 7.9 1.7 49 4.4 S 13 19 7 10 1033.7 1033.7 0.0
19/06:30pm 12.6 8.3 1.3 46 4.8 S 13 19 7 10 1033.2 1033.2 0.0
19/06:00pm 13.5 9.3 1.5 44 5.1 S 13 19 7 10 1032.8 1032.8 0.0
19/05:30pm 14.4 9.8 1.3 41 5.6 S 15 26 8 14 1032.3 1032.3 0.0
19/05:00pm 15.0 9.4 1.2 39 6.0 S 20 30 11 16 1031.9 1031.9 0.0
19/04:30pm 15.8 8.9 0.0 34 6.7 S 26 39 14 21 1031.6 1031.6 0.0
19/04:00pm 16.4 9.1 -0.3 32 7.1 S 28 44 15 24 1031.5 1031.5 0.0
19/03:30pm 15.4 8.9 0.4 36 6.4 S 24 37 13 20 1031.4 1031.4 0.0
19/03:00pm 16.0 8.0 0.2 34 6.7 S 32 44 17 24 1031.4 1031.4 0.0
19/02:37pm 16.5 9.4 1.4 36 6.7 S 28 48 15 26 1031.1 1031.1 0.0
19/02:30pm 16.7 10.1 2.3 38 6.4 S 26 37 14 20 1031.1 1031.1 0.0
19/02:00pm 15.6 8.2 1.7 39 6.1 S 30 43 16 23 1031.0 1031.0 0.0
19/01:30pm 16.3 9.3 2.0 38 6.3 S 28 43 15 23 1031.0 1031.0 0.0
19/01:00pm 15.8 8.6 2.9 42 5.8 SSE 30 43 16 23 1031.2 1031.2 0.0
19/12:30pm 16.0 8.8 3.1 42 5.8 SSE 30 41 16 22 1031.4 1031.4 0.0
19/12:00pm 15.4 8.7 3.9 46 5.3 SSE 28 39 15 21 1031.6 1031.6 0.0
19/11:30am 14.1 7.5 4.1 51 4.5 SSE 28 41 15 22 1031.8 1031.8 0.0
19/11:00am 14.6 8.8 4.6 51 4.6 S 24 37 13 20 1031.9 1031.9 0.0
19/10:30am 14.0 7.5 4.9 54 4.2 SSE 28 35 15 19 1031.9 1031.9 0.0
19/10:00am 13.3 7.6 5.0 57 3.9 SSE 24 33 13 18 1031.8 1031.8 0.0
19/09:30am 12.9 6.8 4.6 57 3.8 SSE 26 33 14 18 1031.5 1031.5 0.0
19/09:00am 12.1 7.3 5.5 64 3.0 S 20 30 11 16 1031.1 1031.1 0.0
19/08:30am 11.5 6.7 5.8 68 2.6 S 20 28 11 15 1030.6 1030.6 0.0
19/08:00am 10.8 6.7 6.4 74 2.1 SSW 17 22 9 12 1030.1 1030.1 0.0
19/07:30am 9.7 6.8 6.6 81 1.4 SSW 11 17 6 9 1029.3 1029.3 0.0
19/07:00am 8.8 5.5 6.6 86 1.0 SSW 13 20 7 11 1028.7 1028.7 0.0
19/06:30am 8.5 5.7 7.0 90 0.7 SSW 11 15 6 8 1028.2 1028.2 0.0
19/06:00am 8.8 5.7 7.1 89 0.8 SSW 13 17 7 9 1027.6 1027.6 0.0
19/05:30am 9.0 5.9 7.1 88 0.9 SSW 13 19 7 10 1027.1 1027.0 0.0
19/05:00am 9.3 6.2 7.4 88 0.9 SSW 13 19 7 10 1026.5 1026.4 0.0
19/04:30am 9.3 6.3 7.9 91 0.7 SSW 13 17 7 9 1026.0 1025.9 0.0
19/04:00am 9.3 7.2 8.4 94 0.4 SW 9 15 5 8 1025.6 1025.5 0.0
19/03:30am 9.5 7.2 8.9 96 0.3 SW 11 15 6 8 1025.1 1025.0 0.0
19/03:00am 9.7 7.6 9.7 100 0.0 SW 11 15 6 8 1024.9 1024.8 0.0
19/02:30am 9.9 7.8 9.9 100 0.0 SW 11 15 6 8 1024.7 1024.6 0.0
19/02:00am 10.4 7.9 9.8 96 0.3 SW 13 17 7 9 1024.7 1024.6 0.0
19/01:30am 10.5 9.0 10.5 100 0.0 SW 9 11 5 6 1024.6 1024.5 0.0
19/01:00am 11.0 9.2 11.0 100 0.0 SW 11 13 6 7 1024.5 1024.4 0.0
19/12:30am 11.5 9.6 10.6 94 0.5 SW 11 15 6 8 1024.2 1024.1 0.0
19/12:00am 12.2 9.5 10.4 89 0.9 SSW 15 22 8 12 1023.8 1023.7 0.0
 
Date/Time
CST
Temp
°C
App
Temp
°C
Dew
Point
Rel
Hum
%
Delta-T
°C
Wind Press
QNH
hPa
Press
MSL
hPa
Rain
since 9 am
mm
Dir
 
Spd
km/h
Gust
km/h
Spd
kts
Gust
kts
18/11:30pm 12.6 10.0 10.7 88 1.0 SSW 15 20 8 11 1023.5 1023.4 0.0
18/11:00pm 12.5 11.0 10.6 88 1.0 SSW 9 15 5 8 1023.3 1023.2 0.0
18/10:30pm 12.5 9.8 10.2 86 1.2 SSW 15 22 8 12 1023.0 1022.9 0.0
18/10:00pm 12.6 9.9 10.3 86 1.2 SSW 15 20 8 11 1022.5 1022.4 0.0
18/09:30pm 12.6 9.2 10.5 87 1.1 SSW 19 26 10 14 1022.1 1022.0 0.0
18/09:00pm 12.3 9.4 10.9 91 0.7 S 17 20 9 11 1021.4 1021.3 0.0
18/08:30pm 12.1 8.2 12.1 100 0.0 S 24 37 13 20 1020.8 1020.7 0.0
18/08:00pm 13.7 9.7 13.1 96 0.3 SSW 26 37 14 20 1020.3 1020.2 0.0
18/07:30pm 14.2 10.6 14.2 100 0.0 SSW 26 39 14 21 1019.6 1019.5 0.0
18/07:00pm 14.9 10.4 14.9 100 0.0 SSW 32 46 17 25 1018.8 1018.7 0.0
18/06:59pm 15.0 10.5 15.0 100 0.0 SSW 32 46 17 25 1018.8 1018.7 0.0
18/06:42pm 17.6 13.9 12.7 73 2.7 WSW 24 50 13 27 1017.9 1017.8 0.0
18/06:30pm 18.0 15.7 11.8 67 3.4 W 15 20 8 11 1017.5 1017.4 0.0
18/06:00pm 18.1 15.6 11.2 64 3.7 WSW 15 22 8 12 1017.0 1016.9 0.0
18/05:30pm 18.7 15.5 11.3 62 4.0 WSW 19 26 10 14 1016.7 1016.6 0.0
18/05:00pm 19.9 16.1 11.1 57 4.8 W 22 33 12 18 1016.4 1016.3 0.0
18/04:30pm 20.0 16.1 10.7 55 5.1 W 22 33 12 18 1016.2 1016.1 0.0
18/04:00pm 19.7 14.8 10.1 54 5.2 WSW 26 37 14 20 1016.4 1016.3 0.0
18/03:30pm 20.9 16.0 10.1 50 5.8 WSW 26 35 14 19 1016.3 1016.2 0.0
18/03:00pm 19.9 14.2 9.8 52 5.4 WSW 30 41 16 22 1016.2 1016.1 0.0
18/02:30pm 21.0 15.7 9.9 49 6.0 WSW 28 39 15 21 1015.9 1015.8 0.0
18/02:00pm 20.7 15.7 9.6 49 5.9 WSW 26 37 14 20 1016.1 1016.0 0.0
18/01:30pm 20.9 16.3 9.8 49 6.0 WSW 24 37 13 20 1016.2 1016.1 0.0
18/01:00pm 19.7 15.5 9.6 52 5.4 WSW 22 33 12 18 1016.7 1016.6 0.0
18/12:30pm 19.5 16.0 10.2 55 5.0 WSW 19 30 10 16 1017.0 1016.9 0.0
18/12:00pm 19.1 15.9 11.2 60 4.3 SW 19 30 10 16 1017.6 1017.5 0.0
18/11:30am 18.1 15.0 11.7 66 3.5 WSW 19 26 10 14 1018.0 1017.9 0.0
18/11:00am 17.7 13.7 11.7 68 3.3 W 24 30 13 16 1018.1 1018.0 0.0
18/10:30am 17.6 14.9 11.8 69 3.2 WSW 17 26 9 14 1018.1 1018.0 0.0
18/10:00am 16.5 13.8 11.6 73 2.7 WSW 17 24 9 13 1018.2 1018.1 0.0
18/09:30am 15.8 13.6 12.2 79 2.0 WSW 15 22 8 12 1018.3 1018.2 0.0
18/09:00am 14.7 13.5 14.1 96 0.3 W 13 17 7 9 1018.7 1018.6 13.2
18/08:30am 14.6 13.8 14.0 96 0.3 W 11 17 6 9 1018.4 1018.3 13.2
18/08:00am 14.0 13.6 14.0 100 0.0 W 9 11 5 6 1017.7 1017.6 13.2
18/07:30am 13.1 12.7 13.1 100 0.0 WSW 7 9 4 5 1017.4 1017.3 13.2
18/07:00am 12.2 12.9 12.2 100 0.0 CALM 0 0 0 0 1017.2 1017.1 13.2
18/06:30am 12.7 11.8 12.7 100 0.0 SW 9 11 5 6 1016.8 1016.7 13.2
18/06:00am 13.2 12.9 13.2 100 0.0 SW 7 9 4 5 1016.6 1016.5 13.2
18/05:30am 13.3 12.6 13.3 100 0.0 SW 9 13 5 7 1016.2 1016.1 13.2
18/05:00am 13.3 13.0 13.3 100 0.0 SW 7 11 4 6 1015.9 1015.8 13.2
18/04:30am 13.3 11.9 13.3 100 0.0 SW 13 17 7 9 1015.2 1015.2 13.2
18/04:00am 13.3 11.9 13.3 100 0.0 SSW 13 19 7 10 1015.3 1015.3 13.2
18/03:30am 13.3 11.5 13.3 100 0.0 SW 15 19 8 10 1015.3 1015.3 13.2
18/03:00am 13.5 11.8 13.5 100 0.0 SW 15 22 8 12 1015.5 1015.4 13.2
18/02:30am 13.7 12.4 13.7 100 0.0 SW 13 17 7 9 1015.5 1015.4 13.2
18/02:00am 13.8 12.5 13.8 100 0.0 SW 13 17 7 9 1015.6 1015.5 13.2
18/01:30am 13.9 13.8 13.9 100 0.0 SW 7 7 4 4 1015.6 1015.5 13.2
18/01:00am 14.0 13.6 14.0 100 0.0 WSW 9 13 5 7 1015.7 1015.6 13.2
18/12:30am 14.0 13.9 14.0 100 0.0 SW 7 11 4 6 1015.6 1015.5 13.2
18/12:00am 14.1 14.1 14.1 100 0.0 SSW 7 11 4 6 1015.8 1015.7 13.2
 
Date/Time
CST
Temp
°C
App
Temp
°C
Dew
Point
Rel
Hum
%
Delta-T
°C
Wind Press
QNH
hPa
Press
MSL
hPa
Rain
since 9 am
mm
Dir
 
Spd
km/h
Gust
km/h
Spd
kts
Gust
kts
17/11:30pm 14.3 14.0 14.3 100 0.0 SW 9 11 5 6 1016.0 1015.9 13.2
17/11:00pm 14.4 14.1 14.4 100 0.0 SW 9 13 5 7 1016.2 1016.1 13.2
17/10:30pm 14.5 14.6 14.5 100 0.0 SW 7 11 4 6 1016.3 1016.2 13.2
17/10:00pm 14.6 14.0 14.6 100 0.0 SW 11 15 6 8 1016.2 1016.1 13.2
17/09:30pm 14.7 14.1 14.7 100 0.0 SW 11 15 6 8 1016.2 1016.1 13.2
17/09:00pm 14.8 14.6 14.8 100 0.0 WSW 9 11 5 6 1016.2 1016.1 13.2
17/08:30pm 14.8 14.6 14.8 100 0.0 WSW 9 13 5 7 1016.1 1016.0 13.2
17/08:00pm 14.8 15.2 14.8 100 0.0 WSW 6 7 3 4 1015.8 1015.7 13.2
17/07:30pm 14.8 15.0 14.8 100 0.0 WSW 7 9 4 5 1015.7 1015.6 12.6
17/07:00pm 14.9 16.5 14.9 100 0.0 CALM 0 0 0 0 1015.5 1015.4 12.0
17/06:30pm 14.8 16.4 14.8 100 0.0 CALM 0 0 0 0 1015.3 1015.3 10.8
17/06:00pm 14.8 15.0 14.8 100 0.0 ENE 7 7 4 4 1014.9 1014.9 10.8
17/05:30pm 14.8 15.0 14.8 100 0.0 E 7 7 4 4 1014.9 1014.9 10.4
17/05:00pm 14.9 15.4 14.9 100 0.0 SE 6 9 3 5 1014.9 1014.9 9.0
17/04:30pm 14.8 14.6 14.8 100 0.0 SE 9 9 5 5 1014.7 1014.7 8.6
17/04:00pm 14.8 14.6 14.8 100 0.0 SE 9 13 5 7 1014.9 1014.9 8.4
17/03:30pm 14.5 14.2 14.5 100 0.0 SE 9 9 5 5 1015.3 1015.3 8.4
17/03:00pm 14.5 13.9 14.5 100 0.0 SE 11 15 6 8 1015.3 1015.3 8.4
17/02:30pm 14.3 14.0 14.3 100 0.0 ESE 9 11 5 6 1015.8 1015.7 7.4
17/02:00pm 14.3 14.0 14.3 100 0.0 ESE 9 11 5 6 1016.2 1016.1 6.6
17/01:30pm 14.2 14.4 14.2 100 0.0 SE 6 7 3 4 1016.6 1016.5 6.6
17/01:00pm 14.0 13.9 14.0 100 0.0 ESE 7 11 4 6 1017.0 1016.9 6.6
17/12:30pm 13.9 13.4 13.9 100 0.0 SE 9 11 5 6 1017.5 1017.4 6.6
17/12:00pm 13.9 13.4 13.9 100 0.0 ESE 9 13 5 7 1018.0 1017.9 6.4
17/11:30am 13.6 12.7 13.6 100 0.0 ESE 11 13 6 7 1018.6 1018.5 5.4
17/11:00am 13.6 14.7 13.6 100 0.0 CALM 0 6 0 3 1019.4 1019.3 3.6
17/10:30am 13.3 11.1 13.3 100 0.0 E 17 30 9 16 1019.2 1019.1 3.2
17/10:00am 13.4 11.2 13.4 100 0.0 E 17 20 9 11 1019.5 1019.4 1.8
17/09:30am 13.4 11.6 13.4 100 0.0 E 15 20 8 11 1020.2 1020.1 0.8
17/09:00am 13.4 11.6 13.4 100 0.0 E 15 20 8 11 1020.1 1020.0 27.0
17/08:30am 13.2 11.0 13.2 100 0.0 E 17 22 9 12 1020.7 1020.6 26.2

Other Formats:

Comma delimited format used in spreadsheet applications
http://www.bom.gov.au/fwo/IDS60801/IDS60801.95687.axf

JavaScript Object Notation format (JSON) in row-major order
http://www.bom.gov.au/fwo/IDS60801/IDS60801.95687.json